Details From EGNR - Hawarden
To EGGW - London Luton
Flight Number -
Tags decoded
Created
Modified
Stats Distance 134 nm / 248 km
Max Altitude 0 ft / 0 m
Waypoints 3
Social Downloads 0
Likes 0
Share VATSIM

Download

Looking for another format? Having issues loading an existing format? Contact us
Advertisement - Login to hide

Notes

Requested: EGNR REXAM EGGW

Route

EGNR REXAM EGGW

ID Type Via Altitude Latitude Longitude Leg Dist Tot Dist Heading (true) Name
O EGNR APT - 0 ft / 0 m 53.17813˚ -2.97766˚ - 0 nm - Hawarden
REXAM FIX - 0 ft / 0 m 53.06667˚ -3.16033˚ 9 nm 9 nm 225° / 224° -
O EGGW APT - 0 ft / 0 m 51.87463˚ -0.36845˚ 124 nm 134 nm 124° / 126° London Luton

Altitude Profile

Advertisement - Login to hide

EGNR

Details ICAO EGNR (CEG)
Name Hawarden
Region United Kingdom
Timezone Europe/London (UTC+1.0)
Stats Elevation 45 ft / 14 m (AMSL)
Location 53.178130° -2.977664°
Runways 1
Magnetic Variation 1.631° W

METAR

EGNR 230720Z VRB03KT CAVOK 12/08 Q1026

Decode

TAF

Not found

Departure Runways

ID Width Length Bearing (true) Bearing (mag) Surface Threshold Offset Overrun Length
05 148 ft / 45 m 6,680 ft / 2,036 m 40.93° 42.56° Asphalt 984 ft / 300 m 0 ft / 0 m
23 148 ft / 45 m 6,680 ft / 2,036 m 220.94° 222.57° Asphalt 984 ft / 300 m 0 ft / 0 m

EGGW

Details ICAO EGGW (LTN)
Name London Luton
Region United Kingdom
Timezone Europe/London (UTC+1.0)
Stats Elevation 526 ft / 160 m (AMSL)
Location 51.874629° -0.368450°
Runways 1
Magnetic Variation 0.508° W

METAR

EGGW 230720Z AUTO 01014G24KT 9999 OVC006 09/08 Q1024

Decode

TAF

TAF EGGW 230505Z 2306/2406 01012KT 9999 BKN006 PROB30 2306/2308 7000 BKN004 BECMG 2307/2310 FEW045 PROB30 TEMPO 2319/2406 6000 SHRA

Decode

Destination Runways

ID Width Length Bearing (true) Bearing (mag) Surface Threshold Offset Overrun Length
08 151 ft / 46 m 7,066 ft / 2,154 m 74.35° 74.86° Asphalt 0 ft / 0 m 200 ft / 61 m
26 151 ft / 46 m 7,066 ft / 2,154 m 254.38° 254.89° Asphalt 272 ft / 83 m 0 ft / 0 m

Approach Navaids

Runway Type Ident Frequency Range Bearing (true) Bearing (mag) Slope Elevation
08 Localiser ILTN 109.15 MHz 18 nm / 33 km 74.37° 74.88° - 526 ft / 160 m (AMSL)
08 Glidescope ILTN 109.15 MHz 10 nm / 19 km 74.36° 74.87° 3.00° 526 ft / 160 m (AMSL)
08 DME ILTN 109.15 MHz 18 nm / 33 km - - - 549 ft / 167 m (AMSL)
26 Localiser ILJ 109.15 MHz 18 nm / 33 km 254.35° 254.86° - 526 ft / 160 m (AMSL)
26 Glidescope ILJ 109.15 MHz 10 nm / 19 km 254.36° 254.87° 3.00° 526 ft / 160 m (AMSL)
26 DME ILJ 109.15 MHz 18 nm / 33 km - - - 549 ft / 167 m (AMSL)

Popular Alternatives